sensor_id;sensor_type;location;lat;lon;timestamp;pressure;altitude;pressure_sealevel;temperature;humidity
47763;BME280;33526;42.690;23.322;2022-07-23T00:00:09;95343.63;;;22.76;51.14
47763;BME280;33526;42.690;23.322;2022-07-23T00:02:35;95344.56;;;22.65;51.59
47763;BME280;33526;42.690;23.322;2022-07-23T00:05:01;95297.16;;;22.35;51.43
47763;BME280;33526;42.690;23.322;2022-07-23T00:07:27;95320.63;;;22.41;51.70
47763;BME280;33526;42.690;23.322;2022-07-23T00:09:52;95278.66;;;22.09;51.82
47763;BME280;33526;42.690;23.322;2022-07-23T00:12:18;95353.53;;;22.56;51.88
47763;BME280;33526;42.690;23.322;2022-07-23T00:14:43;95278.59;;;21.96;51.93
47763;BME280;33526;42.690;23.322;2022-07-23T00:17:09;95285.59;;;21.95;52.40
47763;BME280;33526;42.690;23.322;2022-07-23T00:19:34;95269.28;;;21.76;52.60
47763;BME280;33526;42.690;23.322;2022-07-23T00:22:00;95352.03;;;22.36;52.48
47763;BME280;33526;42.690;23.322;2022-07-23T00:24:25;95352.78;;;22.36;52.11
47763;BME280;33526;42.690;23.322;2022-07-23T00:26:51;95330.41;;;22.27;52.10
47763;BME280;33526;42.690;23.322;2022-07-23T00:29:16;95354.78;;;22.41;52.13
47763;BME280;33526;42.690;23.322;2022-07-23T00:31:42;95294.59;;;21.99;52.11
47763;BME280;33526;42.690;23.322;2022-07-23T00:34:07;95320.88;;;22.24;52.62
47763;BME280;33526;42.690;23.322;2022-07-23T00:36:33;95294.63;;;22.12;53.60
47763;BME280;33526;42.690;23.322;2022-07-23T00:38:58;95277.28;;;21.97;53.63
47763;BME280;33526;42.690;23.322;2022-07-23T00:41:24;95316.78;;;22.20;53.64
47763;BME280;33526;42.690;23.322;2022-07-23T00:43:49;95296.81;;;22.06;53.98
47763;BME280;33526;42.690;23.322;2022-07-23T00:46:22;95335.09;;;22.24;54.24
47763;BME280;33526;42.690;23.322;2022-07-23T00:48:48;95293.34;;;21.94;53.97
47763;BME280;33526;42.690;23.322;2022-07-23T00:51:17;95298.06;;;21.92;54.29
47763;BME280;33526;42.690;23.322;2022-07-23T00:53:43;95360.91;;;22.32;54.26
47763;BME280;33526;42.690;23.322;2022-07-23T00:56:10;95363.75;;;22.32;54.17
47763;BME280;33526;42.690;23.322;2022-07-23T00:58:35;95349.75;;;22.15;53.73
47763;BME280;33526;42.690;23.322;2022-07-23T01:01:02;95359.03;;;22.15;52.97
47763;BME280;33526;42.690;23.322;2022-07-23T01:03:28;95350.19;;;22.00;52.64
47763;BME280;33526;42.690;23.322;2022-07-23T01:05:54;95341.56;;;21.68;53.07
47763;BME280;33526;42.690;23.322;2022-07-23T01:08:20;95314.19;;;21.46;52.94
47763;BME280;33526;42.690;23.322;2022-07-23T01:10:47;95361.44;;;21.73;52.76
47763;BME280;33526;42.690;23.322;2022-07-23T01:13:13;95336.31;;;21.53;52.84
47763;BME280;33526;42.690;23.322;2022-07-23T01:15:39;95298.91;;;21.24;52.84
47763;BME280;33526;42.690;23.322;2022-07-23T01:18:05;95354.78;;;21.65;52.71
47763;BME280;33526;42.690;23.322;2022-07-23T01:20:31;95344.47;;;21.62;52.99
47763;BME280;33526;42.690;23.322;2022-07-23T01:22:59;95292.53;;;21.37;52.47
47763;BME280;33526;42.690;23.322;2022-07-23T01:25:24;95336.25;;;21.58;52.63
47763;BME280;33526;42.690;23.322;2022-07-23T01:27:52;95326.81;;;21.50;52.60
47763;BME280;33526;42.690;23.322;2022-07-23T01:30:18;95316.84;;;21.38;52.70
47763;BME280;33526;42.690;23.322;2022-07-23T01:32:43;95348.47;;;21.53;52.84
47763;BME280;33526;42.690;23.322;2022-07-23T01:35:09;95290.66;;;21.02;52.97
47763;BME280;33526;42.690;23.322;2022-07-23T01:37:35;95315.50;;;21.20;52.80
47763;BME280;33526;42.690;23.322;2022-07-23T01:40:01;95267.31;;;20.84;53.08
47763;BME280;33526;42.690;23.322;2022-07-23T01:42:27;95320.34;;;21.25;52.93
47763;BME280;33526;42.690;23.322;2022-07-23T01:44:53;95348.88;;;21.38;53.31
47763;BME280;33526;42.690;23.322;2022-07-23T01:47:18;95298.38;;;21.01;53.37
47763;BME280;33526;42.690;23.322;2022-07-23T01:49:44;95310.72;;;21.09;53.15
47763;BME280;33526;42.690;23.322;2022-07-23T01:52:09;95337.66;;;21.27;53.23
47763;BME280;33526;42.690;23.322;2022-07-23T01:54:37;95350.44;;;21.39;52.99
47763;BME280;33526;42.690;23.322;2022-07-23T01:57:04;95292.91;;;21.09;53.05
47763;BME280;33526;42.690;23.322;2022-07-23T01:59:30;95348.06;;;21.44;53.09
47763;BME280;33526;42.690;23.322;2022-07-23T02:01:55;95325.44;;;21.32;52.94
47763;BME280;33526;42.690;23.322;2022-07-23T02:04:22;95295.38;;;21.18;52.91
47763;BME280;33526;42.690;23.322;2022-07-23T02:06:47;95314.91;;;21.27;52.86
47763;BME280;33526;42.690;23.322;2022-07-23T02:09:14;95357.56;;;21.52;52.70
47763;BME280;33526;42.690;23.322;2022-07-23T02:11:40;95317.22;;;21.29;53.05
47763;BME280;33526;42.690;23.322;2022-07-23T02:14:06;95308.16;;;21.30;53.12
47763;BME280;33526;42.690;23.322;2022-07-23T02:16:32;95350.66;;;21.66;52.80
47763;BME280;33526;42.690;23.322;2022-07-23T02:18:58;95347.09;;;21.60;53.24
47763;BME280;33526;42.690;23.322;2022-07-23T02:21:23;95345.72;;;21.67;52.75
47763;BME280;33526;42.690;23.322;2022-07-23T02:23:49;95317.06;;;21.40;52.95
47763;BME280;33526;42.690;23.322;2022-07-23T02:26:15;95356.09;;;21.64;53.01
47763;BME280;33526;42.690;23.322;2022-07-23T02:28:40;95338.94;;;21.51;53.01
47763;BME280;33526;42.690;23.322;2022-07-23T02:31:06;95329.81;;;21.33;53.57
47763;BME280;33526;42.690;23.322;2022-07-23T02:33:32;95297.03;;;21.08;53.93
47763;BME280;33526;42.690;23.322;2022-07-23T02:35:59;95287.00;;;21.01;53.92
47763;BME280;33526;42.690;23.322;2022-07-23T02:38:24;95311.94;;;21.14;54.20
47763;BME280;33526;42.690;23.322;2022-07-23T02:40:50;95296.13;;;20.94;54.73
47763;BME280;33526;42.690;23.322;2022-07-23T02:43:16;95280.28;;;20.79;54.71
47763;BME280;33526;42.690;23.322;2022-07-23T02:45:41;95339.88;;;21.10;55.49
47763;BME280;33526;42.690;23.322;2022-07-23T02:48:07;95369.38;;;21.07;56.48
47763;BME280;33526;42.690;23.322;2022-07-23T02:50:32;95347.94;;;20.81;56.57
47763;BME280;33526;42.690;23.322;2022-07-23T02:52:58;95349.63;;;20.65;57.54
47763;BME280;33526;42.690;23.322;2022-07-23T02:55:23;95378.56;;;20.64;57.87
47763;BME280;33526;42.690;23.322;2022-07-23T02:57:49;95320.56;;;20.17;58.45
47763;BME280;33526;42.690;23.322;2022-07-23T03:00:14;95363.69;;;20.46;58.03
47763;BME280;33526;42.690;23.322;2022-07-23T03:02:40;95382.75;;;20.51;57.98
47763;BME280;33526;42.690;23.322;2022-07-23T03:05:06;95313.97;;;19.98;58.56
47763;BME280;33526;42.690;23.322;2022-07-23T03:07:31;95358.16;;;20.23;58.67
47763;BME280;33526;42.690;23.322;2022-07-23T03:09:57;95389.31;;;20.40;58.53
47763;BME280;33526;42.690;23.322;2022-07-23T03:12:22;95326.69;;;19.85;58.94
47763;BME280;33526;42.690;23.322;2022-07-23T03:14:48;95344.97;;;19.90;58.99
47763;BME280;33526;42.690;23.322;2022-07-23T03:17:14;95342.09;;;19.96;59.03
47763;BME280;33526;42.690;23.322;2022-07-23T03:19:39;95374.72;;;20.19;58.56
47763;BME280;33526;42.690;23.322;2022-07-23T03:22:05;95311.81;;;19.68;58.87
47763;BME280;33526;42.690;23.322;2022-07-23T03:24:30;95406.66;;;20.31;58.75
47763;BME280;33526;42.690;23.322;2022-07-23T03:27:15;95401.00;;;20.25;59.00
47763;BME280;33526;42.690;23.322;2022-07-23T03:29:40;95409.25;;;20.23;59.15
47763;BME280;33526;42.690;23.322;2022-07-23T03:32:06;95371.84;;;19.83;59.28
47763;BME280;33526;42.690;23.322;2022-07-23T03:34:32;95404.72;;;20.09;59.71
47763;BME280;33526;42.690;23.322;2022-07-23T03:36:57;95347.38;;;19.69;59.55
47763;BME280;33526;42.690;23.322;2022-07-23T03:39:22;95372.38;;;19.76;59.63
47763;BME280;33526;42.690;23.322;2022-07-23T03:41:48;95394.53;;;19.83;59.71
47763;BME280;33526;42.690;23.322;2022-07-23T03:44:13;95345.63;;;19.55;59.92
47763;BME280;33526;42.690;23.322;2022-07-23T03:46:39;95325.28;;;19.56;59.74
47763;BME280;33526;42.690;23.322;2022-07-23T03:49:04;95358.66;;;19.86;59.26
47763;BME280;33526;42.690;23.322;2022-07-23T03:51:30;95389.75;;;20.09;59.14
47763;BME280;33526;42.690;23.322;2022-07-23T03:53:55;95335.00;;;19.78;59.25
47763;BME280;33526;42.690;23.322;2022-07-23T03:56:21;95361.41;;;20.03;58.67
47763;BME280;33526;42.690;23.322;2022-07-23T03:58:46;95350.06;;;20.03;58.49
47763;BME280;33526;42.690;23.322;2022-07-23T04:01:12;95401.94;;;20.39;58.76
47763;BME280;33526;42.690;23.322;2022-07-23T04:03:37;95342.28;;;20.09;58.37
47763;BME280;33526;42.690;23.322;2022-07-23T04:06:03;95392.09;;;20.46;58.57
47763;BME280;33526;42.690;23.322;2022-07-23T04:08:29;95399.97;;;20.65;58.47
47763;BME280;33526;42.690;23.322;2022-07-23T04:10:55;95372.69;;;20.50;57.79
47763;BME280;33526;42.690;23.322;2022-07-23T04:13:21;95394.06;;;20.62;57.63
47763;BME280;33526;42.690;23.322;2022-07-23T04:15:48;95376.34;;;20.81;56.77
47763;BME280;33526;42.690;23.322;2022-07-23T04:18:16;95417.59;;;21.43;55.87
47763;BME280;33526;42.690;23.322;2022-07-23T04:20:43;95414.34;;;22.01;54.24
47763;BME280;33526;42.690;23.322;2022-07-23T04:23:08;95358.03;;;21.94;53.22
47763;BME280;33526;42.690;23.322;2022-07-23T04:25:35;95397.75;;;22.43;52.67
47763;BME280;33526;42.690;23.322;2022-07-23T04:28:00;95395.31;;;22.99;51.20
47763;BME280;33526;42.690;23.322;2022-07-23T04:30:26;95383.19;;;23.12;50.12
47763;BME280;33526;42.690;23.322;2022-07-23T04:32:51;95404.94;;;23.55;49.55
47763;BME280;33526;42.690;23.322;2022-07-23T04:35:18;95406.38;;;24.01;48.45
47763;BME280;33526;42.690;23.322;2022-07-23T04:37:44;95417.50;;;24.39;47.26
47763;BME280;33526;42.690;23.322;2022-07-23T04:40:11;95370.47;;;24.40;47.20
47763;BME280;33526;42.690;23.322;2022-07-23T04:42:38;95373.03;;;24.86;45.54
47763;BME280;33526;42.690;23.322;2022-07-23T04:45:04;95403.78;;;25.14;45.31
47763;BME280;33526;42.690;23.322;2022-07-23T04:47:30;95407.84;;;24.98;45.42
47763;BME280;33526;42.690;23.322;2022-07-23T04:49:56;95324.19;;;24.21;45.49
47763;BME280;33526;42.690;23.322;2022-07-23T04:52:21;95412.72;;;24.90;45.58
47763;BME280;33526;42.690;23.322;2022-07-23T04:54:47;95344.69;;;24.67;44.66
47763;BME280;33526;42.690;23.322;2022-07-23T04:57:12;95345.72;;;24.43;45.32
47763;BME280;33526;42.690;23.322;2022-07-23T04:59:38;95368.81;;;24.79;44.68
47763;BME280;33526;42.690;23.322;2022-07-23T05:02:03;95369.97;;;25.05;44.12
47763;BME280;33526;42.690;23.322;2022-07-23T05:04:30;95389.56;;;25.01;44.37
47763;BME280;33526;42.690;23.322;2022-07-23T05:06:56;95426.63;;;25.28;44.66
47763;BME280;33526;42.690;23.322;2022-07-23T05:09:22;95416.97;;;25.38;43.95
47763;BME280;33526;42.690;23.322;2022-07-23T05:11:47;95384.56;;;24.94;44.86
47763;BME280;33526;42.690;23.322;2022-07-23T05:14:13;95410.78;;;25.27;44.10
47763;BME280;33526;42.690;23.322;2022-07-23T05:16:39;95324.28;;;24.50;44.93
47763;BME280;33526;42.690;23.322;2022-07-23T05:19:04;95387.19;;;24.92;44.44
47763;BME280;33526;42.690;23.322;2022-07-23T05:21:31;95410.81;;;25.13;44.36
47763;BME280;33526;42.690;23.322;2022-07-23T05:23:57;95373.25;;;25.59;43.09
47763;BME280;33526;42.690;23.322;2022-07-23T05:26:22;95429.66;;;26.52;41.97
47763;BME280;33526;42.690;23.322;2022-07-23T05:28:48;95326.84;;;25.89;41.66
47763;BME280;33526;42.690;23.322;2022-07-23T05:31:13;95432.41;;;26.22;42.13
47763;BME280;33526;42.690;23.322;2022-07-23T05:33:39;95383.91;;;25.59;42.98
47763;BME280;33526;42.690;23.322;2022-07-23T05:36:05;95428.91;;;25.79;43.05
47763;BME280;33526;42.690;23.322;2022-07-23T05:38:31;95366.94;;;25.89;42.13
47763;BME280;33526;42.690;23.322;2022-07-23T05:40:57;95413.88;;;26.75;40.78
47763;BME280;33526;42.690;23.322;2022-07-23T05:43:23;95363.75;;;26.60;40.34
47763;BME280;33526;42.690;23.322;2022-07-23T05:45:48;95370.47;;;26.11;41.30
47763;BME280;33526;42.690;23.322;2022-07-23T05:48:16;95427.66;;;26.92;40.66
47763;BME280;33526;42.690;23.322;2022-07-23T05:50:41;95417.78;;;27.62;39.75
47763;BME280;33526;42.690;23.322;2022-07-23T05:53:07;95421.91;;;28.07;38.64
47763;BME280;33526;42.690;23.322;2022-07-23T05:55:32;95409.50;;;28.53;38.39
47763;BME280;33526;42.690;23.322;2022-07-23T05:57:58;95356.66;;;27.84;39.05
47763;BME280;33526;42.690;23.322;2022-07-23T06:00:24;95404.91;;;27.78;39.66
47763;BME280;33526;42.690;23.322;2022-07-23T06:02:50;95350.72;;;27.82;39.13
47763;BME280;33526;42.690;23.322;2022-07-23T06:05:16;95411.50;;;28.35;38.92
47763;BME280;33526;42.690;23.322;2022-07-23T06:07:42;95374.06;;;28.02;39.23
47763;BME280;33526;42.690;23.322;2022-07-23T06:10:09;95407.03;;;27.93;39.89
47763;BME280;33526;42.690;23.322;2022-07-23T06:12:35;95376.16;;;28.09;39.01
47763;BME280;33526;42.690;23.322;2022-07-23T06:15:01;95351.75;;;28.26;38.29
47763;BME280;33526;42.690;23.322;2022-07-23T06:17:28;95361.63;;;28.40;38.40
47763;BME280;33526;42.690;23.322;2022-07-23T06:19:54;95381.63;;;28.71;37.42
47763;BME280;33526;42.690;23.322;2022-07-23T06:22:20;95421.31;;;28.65;37.70
47763;BME280;33526;42.690;23.322;2022-07-23T06:24:46;95420.88;;;29.09;37.13
47763;BME280;33526;42.690;23.322;2022-07-23T06:27:11;95298.81;;;28.29;37.33
47763;BME280;33526;42.690;23.322;2022-07-23T06:29:37;95315.06;;;28.01;37.11
47763;BME280;33526;42.690;23.322;2022-07-23T06:32:03;95342.66;;;27.89;38.03
47763;BME280;33526;42.690;23.322;2022-07-23T06:34:28;95343.72;;;26.91;39.50
47763;BME280;33526;42.690;23.322;2022-07-23T06:36:54;95303.13;;;26.25;40.83
47763;BME280;33526;42.690;23.322;2022-07-23T06:39:20;95358.03;;;26.76;40.51
47763;BME280;33526;42.690;23.322;2022-07-23T06:41:45;95332.72;;;26.28;40.65
47763;BME280;33526;42.690;23.322;2022-07-23T06:44:11;95303.25;;;25.68;41.54
47763;BME280;33526;42.690;23.322;2022-07-23T06:46:37;95424.88;;;26.47;42.17
47763;BME280;33526;42.690;23.322;2022-07-23T06:49:03;95345.63;;;26.06;42.46
47763;BME280;33526;42.690;23.322;2022-07-23T06:51:29;95323.69;;;25.72;43.22
47763;BME280;33526;42.690;23.322;2022-07-23T06:53:56;95343.41;;;25.83;43.27
47763;BME280;33526;42.690;23.322;2022-07-23T06:56:21;95362.50;;;26.25;43.15
47763;BME280;33526;42.690;23.322;2022-07-23T06:58:47;95330.16;;;26.09;42.06
47763;BME280;33526;42.690;23.322;2022-07-23T07:01:12;95363.59;;;26.14;42.08
47763;BME280;33526;42.690;23.322;2022-07-23T07:03:38;95362.13;;;26.28;42.04
47763;BME280;33526;42.690;23.322;2022-07-23T07:06:03;95328.13;;;26.32;41.28
47763;BME280;33526;42.690;23.322;2022-07-23T07:08:29;95395.34;;;26.83;41.23
47763;BME280;33526;42.690;23.322;2022-07-23T07:10:55;95345.44;;;26.63;40.72
47763;BME280;33526;42.690;23.322;2022-07-23T07:13:21;95342.38;;;26.77;40.59
47763;BME280;33526;42.690;23.322;2022-07-23T07:15:46;95307.41;;;26.70;39.68
47763;BME280;33526;42.690;23.322;2022-07-23T07:18:12;95320.22;;;26.69;39.92
47763;BME280;33526;42.690;23.322;2022-07-23T07:20:37;95368.41;;;27.09;40.01
47763;BME280;33526;42.690;23.322;2022-07-23T07:23:03;95393.06;;;27.20;39.89
47763;BME280;33526;42.690;23.322;2022-07-23T07:25:28;95345.84;;;26.98;39.46
47763;BME280;33526;42.690;23.322;2022-07-23T07:27:53;95305.28;;;26.86;39.85
47763;BME280;33526;42.690;23.322;2022-07-23T07:30:19;95378.94;;;27.61;38.96
47763;BME280;33526;42.690;23.322;2022-07-23T07:32:45;95282.94;;;26.85;38.72
47763;BME280;33526;42.690;23.322;2022-07-23T07:35:10;95333.22;;;27.24;38.52
47763;BME280;33526;42.690;23.322;2022-07-23T07:37:36;95327.50;;;27.32;38.70
47763;BME280;33526;42.690;23.322;2022-07-23T07:40:05;95377.56;;;27.70;38.88
47763;BME280;33526;42.690;23.322;2022-07-23T07:42:34;95277.78;;;27.06;38.32
47763;BME280;33526;42.690;23.322;2022-07-23T07:45:00;95303.00;;;27.00;38.94
47763;BME280;33526;42.690;23.322;2022-07-23T07:47:26;95387.09;;;27.88;39.16
47763;BME280;33526;42.690;23.322;2022-07-23T07:49:51;95275.66;;;27.30;38.43
47763;BME280;33526;42.690;23.322;2022-07-23T07:52:18;95373.38;;;28.27;38.13
47763;BME280;33526;42.690;23.322;2022-07-23T07:54:44;95336.41;;;28.23;37.87
47763;BME280;33526;42.690;23.322;2022-07-23T07:57:09;95352.56;;;28.51;37.36
47763;BME280;33526;42.690;23.322;2022-07-23T07:59:35;95301.91;;;28.23;37.20
47763;BME280;33526;42.690;23.322;2022-07-23T08:02:01;95307.19;;;28.42;36.77
47763;BME280;33526;42.690;23.322;2022-07-23T08:04:26;95251.06;;;28.08;36.83
47763;BME280;33526;42.690;23.322;2022-07-23T08:06:52;95301.78;;;28.46;36.41
47763;BME280;33526;42.690;23.322;2022-07-23T08:09:17;95281.00;;;28.30;36.20
47763;BME280;33526;42.690;23.322;2022-07-23T08:11:43;95309.41;;;28.59;36.30
47763;BME280;33526;42.690;23.322;2022-07-23T08:14:08;95308.56;;;28.74;36.10
47763;BME280;33526;42.690;23.322;2022-07-23T08:16:36;95348.88;;;29.16;36.50
47763;BME280;33526;42.690;23.322;2022-07-23T08:19:05;95298.69;;;28.85;35.90
47763;BME280;33526;42.690;23.322;2022-07-23T08:21:30;95315.47;;;28.71;36.15
47763;BME280;33526;42.690;23.322;2022-07-23T08:23:57;95301.34;;;28.57;36.19
47763;BME280;33526;42.690;23.322;2022-07-23T08:26:23;95353.97;;;29.01;36.44
47763;BME280;33526;42.690;23.322;2022-07-23T08:28:48;95329.34;;;29.15;36.36
47763;BME280;33526;42.690;23.322;2022-07-23T08:31:14;95343.63;;;29.48;35.31
47763;BME280;33526;42.690;23.322;2022-07-23T08:33:41;95295.34;;;29.39;34.76
47763;BME280;33526;42.690;23.322;2022-07-23T08:36:07;95354.88;;;29.79;35.23
47763;BME280;33526;42.690;23.322;2022-07-23T08:38:33;95314.84;;;29.48;34.41
47763;BME280;33526;42.690;23.322;2022-07-23T08:40:59;95295.94;;;29.37;34.61
47763;BME280;33526;42.690;23.322;2022-07-23T08:43:27;95346.72;;;29.85;35.12
47763;BME280;33526;42.690;23.322;2022-07-23T08:45:57;95257.25;;;29.48;34.27
47763;BME280;33526;42.690;23.322;2022-07-23T08:48:34;95300.53;;;29.92;34.00
47763;BME280;33526;42.690;23.322;2022-07-23T08:51:04;95350.78;;;29.99;34.09
47763;BME280;33526;42.690;23.322;2022-07-23T08:53:30;95293.00;;;29.80;33.39
47763;BME280;33526;42.690;23.322;2022-07-23T08:55:59;95235.56;;;29.29;33.52
47763;BME280;33526;42.690;23.322;2022-07-23T08:58:26;95327.03;;;30.08;33.83
47763;BME280;33526;42.690;23.322;2022-07-23T09:00:52;95327.56;;;30.15;33.65
47763;BME280;33526;42.690;23.322;2022-07-23T09:03:20;95303.63;;;30.22;34.01
47763;BME280;33526;42.690;23.322;2022-07-23T09:05:46;95315.25;;;30.59;32.60
47763;BME280;33526;42.690;23.322;2022-07-23T09:08:14;95332.50;;;30.76;32.98
47763;BME280;33526;42.690;23.322;2022-07-23T09:18:41;95216.94;;;30.37;31.94
47763;BME280;33526;42.690;23.322;2022-07-23T09:21:17;95325.84;;;31.11;31.24
47763;BME280;33526;42.690;23.322;2022-07-23T09:23:57;95324.13;;;30.98;32.15
47763;BME280;33526;42.690;23.322;2022-07-23T09:29:05;95325.00;;;31.37;30.66
47763;BME280;33526;42.690;23.322;2022-07-23T09:31:46;95272.34;;;31.10;30.19
47763;BME280;33526;42.690;23.322;2022-07-23T09:36:39;95312.47;;;31.72;30.62
47763;BME280;33526;42.690;23.322;2022-07-23T09:39:05;95282.50;;;31.87;29.31
47763;BME280;33526;42.690;23.322;2022-07-23T09:41:46;95262.28;;;31.96;29.26
47763;BME280;33526;42.690;23.322;2022-07-23T09:44:17;95302.88;;;32.28;28.84
47763;BME280;33526;42.690;23.322;2022-07-23T09:46:47;95244.47;;;32.00;27.95
47763;BME280;33526;42.690;23.322;2022-07-23T09:49:21;95216.31;;;32.00;28.12
47763;BME280;33526;42.690;23.322;2022-07-23T09:51:50;95279.69;;;32.47;27.97
47763;BME280;33526;42.690;23.322;2022-07-23T09:54:22;95287.25;;;32.72;27.45
47763;BME280;33526;42.690;23.322;2022-07-23T09:56:49;95246.16;;;32.64;26.53
47763;BME280;33526;42.690;23.322;2022-07-23T09:59:16;95238.53;;;32.68;26.31
47763;BME280;33526;42.690;23.322;2022-07-23T10:01:45;95222.97;;;32.73;25.66
47763;BME280;33526;42.690;23.322;2022-07-23T10:04:11;95287.06;;;32.80;25.99
47763;BME280;33526;42.690;23.322;2022-07-23T10:06:40;95277.47;;;32.77;26.01
47763;BME280;33526;42.690;23.322;2022-07-23T10:09:08;95211.09;;;32.28;25.44
47763;BME280;33526;42.690;23.322;2022-07-23T10:11:37;95205.13;;;32.36;25.18
47763;BME280;33526;42.690;23.322;2022-07-23T10:14:04;95230.75;;;32.71;25.77
47763;BME280;33526;42.690;23.322;2022-07-23T10:16:34;95215.81;;;32.74;25.07
47763;BME280;33526;42.690;23.322;2022-07-23T10:18:59;95191.81;;;32.62;24.78
47763;BME280;33526;42.690;23.322;2022-07-23T10:21:40;95256.31;;;33.16;22.96
47763;BME280;33526;42.690;23.322;2022-07-23T10:30:28;95245.88;;;32.91;23.71
47763;BME280;33526;42.690;23.322;2022-07-23T10:38:51;95261.13;;;33.23;23.42
47763;BME280;33526;42.690;23.322;2022-07-23T10:41:36;95206.81;;;33.02;23.37
47763;BME280;33526;42.690;23.322;2022-07-23T10:44:11;95251.28;;;33.38;23.13
47763;BME280;33526;42.690;23.322;2022-07-23T10:47:04;95244.66;;;33.68;22.53
47763;BME280;33526;42.690;23.322;2022-07-23T10:49:36;95226.53;;;33.68;22.72
47763;BME280;33526;42.690;23.322;2022-07-23T10:54:47;95221.09;;;33.96;21.42
47763;BME280;33526;42.690;23.322;2022-07-23T10:57:14;95177.16;;;33.78;21.88
47763;BME280;33526;42.690;23.322;2022-07-23T11:02:35;95169.53;;;33.61;21.84
47763;BME280;33526;42.690;23.322;2022-07-23T11:05:12;95217.59;;;34.09;20.59
47763;BME280;33526;42.690;23.322;2022-07-23T11:10:37;95132.47;;;33.59;19.29
47763;BME280;33526;42.690;23.322;2022-07-23T11:31:58;95129.91;;;34.20;17.76
47763;BME280;33526;42.690;23.322;2022-07-23T11:36:56;95184.56;;;34.71;17.77
47763;BME280;33526;42.690;23.322;2022-07-23T11:39:25;95136.16;;;34.17;16.54
47763;BME280;33526;42.690;23.322;2022-07-23T11:41:52;95170.03;;;34.71;17.43
47763;BME280;33526;42.690;23.322;2022-07-23T11:44:28;95085.75;;;34.22;17.36
47763;BME280;33526;42.690;23.322;2022-07-23T11:47:02;95178.38;;;34.77;16.05
47763;BME280;33526;42.690;23.322;2022-07-23T11:49:29;95143.75;;;34.34;15.86
47763;BME280;33526;42.690;23.322;2022-07-23T11:54:33;95162.19;;;34.97;16.33
47763;BME280;33526;42.690;23.322;2022-07-23T11:56:59;95113.25;;;34.80;16.78
47763;BME280;33526;42.690;23.322;2022-07-23T11:59:32;95151.44;;;35.12;16.81
47763;BME280;33526;42.690;23.322;2022-07-23T12:02:00;95159.50;;;35.37;16.45
47763;BME280;33526;42.690;23.322;2022-07-23T12:04:42;95153.50;;;35.47;16.35
47763;BME280;33526;42.690;23.322;2022-07-23T12:07:36;95109.63;;;35.17;16.29
47763;BME280;33526;42.690;23.322;2022-07-23T12:12:48;95156.38;;;35.21;16.28
47763;BME280;33526;42.690;23.322;2022-07-23T12:15:21;95074.47;;;34.87;17.07
47763;BME280;33526;42.690;23.322;2022-07-23T12:17:48;95145.63;;;35.61;16.43
47763;BME280;33526;42.690;23.322;2022-07-23T12:20:21;95143.50;;;35.87;17.04
47763;BME280;33526;42.690;23.322;2022-07-23T12:22:50;95090.38;;;35.73;16.76
47763;BME280;33526;42.690;23.322;2022-07-23T12:25:21;95153.44;;;36.22;16.62
47763;BME280;33526;42.690;23.322;2022-07-23T12:30:27;95088.31;;;35.50;17.08
47763;BME280;33526;42.690;23.322;2022-07-23T12:32:56;95105.50;;;35.46;16.39
47763;BME280;33526;42.690;23.322;2022-07-23T12:35:29;95094.41;;;35.42;17.10
47763;BME280;33526;42.690;23.322;2022-07-23T12:38:00;95086.44;;;35.68;16.27
47763;BME280;33526;42.690;23.322;2022-07-23T12:40:41;95068.72;;;35.76;16.68
47763;BME280;33526;42.690;23.322;2022-07-23T12:43:18;95070.25;;;35.65;16.51
47763;BME280;33526;42.690;23.322;2022-07-23T12:45:56;95095.16;;;35.94;15.22
47763;BME280;33526;42.690;23.322;2022-07-23T12:48:30;95133.53;;;36.04;15.81
47763;BME280;33526;42.690;23.322;2022-07-23T12:50:56;95122.72;;;35.93;15.60
47763;BME280;33526;42.690;23.322;2022-07-23T12:53:26;95012.16;;;35.14;16.00
47763;BME280;33526;42.690;23.322;2022-07-23T12:56:18;95074.84;;;35.56;15.03
47763;BME280;33526;42.690;23.322;2022-07-23T12:58:50;95125.03;;;36.08;15.02
47763;BME280;33526;42.690;23.322;2022-07-23T13:06:25;95107.72;;;35.59;15.33
47763;BME280;33526;42.690;23.322;2022-07-23T13:08:51;95076.84;;;35.40;15.53
47763;BME280;33526;42.690;23.322;2022-07-23T13:11:16;95064.13;;;35.59;14.78
47763;BME280;33526;42.690;23.322;2022-07-23T13:13:42;95074.00;;;35.79;14.27
47763;BME280;33526;42.690;23.322;2022-07-23T13:16:07;95078.38;;;36.06;14.03
47763;BME280;33526;42.690;23.322;2022-07-23T13:18:40;95058.38;;;36.12;14.01
47763;BME280;33526;42.690;23.322;2022-07-23T13:21:06;95062.88;;;36.15;14.33
47763;BME280;33526;42.690;23.322;2022-07-23T13:23:31;95099.09;;;36.12;14.64
47763;BME280;33526;42.690;23.322;2022-07-23T13:25:57;95052.78;;;35.77;14.60
47763;BME280;33526;42.690;23.322;2022-07-23T13:28:22;95025.53;;;35.45;15.11
47763;BME280;33526;42.690;23.322;2022-07-23T13:30:49;95098.63;;;35.53;15.05
47763;BME280;33526;42.690;23.322;2022-07-23T13:33:17;95080.81;;;35.84;15.49
47763;BME280;33526;42.690;23.322;2022-07-23T13:35:43;95053.66;;;35.79;14.98
47763;BME280;33526;42.690;23.322;2022-07-23T13:38:09;95091.91;;;35.88;13.76
47763;BME280;33526;42.690;23.322;2022-07-23T13:40:39;95051.56;;;35.68;14.60
47763;BME280;33526;42.690;23.322;2022-07-23T13:43:11;95051.84;;;35.60;14.41
47763;BME280;33526;42.690;23.322;2022-07-23T13:45:38;95047.41;;;35.46;14.58
47763;BME280;33526;42.690;23.322;2022-07-23T13:48:04;95083.06;;;35.86;14.49
47763;BME280;33526;42.690;23.322;2022-07-23T13:50:30;95059.13;;;35.73;14.55
47763;BME280;33526;42.690;23.322;2022-07-23T13:52:56;95071.13;;;35.93;14.74
47763;BME280;33526;42.690;23.322;2022-07-23T13:55:21;94996.16;;;35.52;15.01
47763;BME280;33526;42.690;23.322;2022-07-23T13:57:47;95024.63;;;35.93;14.81